Time;durP1;ratioP1;P1;durP2;ratioP2;P2;SDS_P1;SDS_P2;PMS_P1;PMS_P2;Temp;Humidity;BMP_temperature;BMP_pressure;BME280_temperature;BME280_humidity;BME280_pressure;Samples;Min_cycle;Max_cycle;Signal;HPM_P1;HPM_P2
2022/01/10 00:02:25;;;;;;;14.43;8.07;;;5.10;99.90;;;;;;5074754;28;20201;-76
2022/01/10 00:04:51;;;;;;;27.43;13.53;;;5.20;99.90;;;;;;5054178;28;20268;-76
2022/01/10 00:07:17;;;;;;;22.47;12.67;;;5.10;99.90;;;;;;5071407;28;20184;-76
2022/01/10 00:09:42;;;;;;;20.23;12.13;;;5.10;99.90;;;;;;5072637;28;20184;-76
2022/01/10 00:12:09;;;;;;;17.47;9.57;;;5.10;99.90;;;;;;5073002;28;20189;-76
2022/01/10 00:14:35;;;;;;;15.57;8.53;;;5.20;99.90;;;;;;5073295;28;20176;-76
2022/01/10 00:17:01;;;;;;;12.73;7.40;;;5.20;99.90;;;;;;5071240;28;20184;-76
2022/01/10 00:19:27;;;;;;;18.23;8.80;;;5.20;99.90;;;;;;5072347;28;20185;-76
2022/01/10 00:21:53;;;;;;;18.97;9.20;;;5.10;99.90;;;;;;5073113;28;20177;-76
2022/01/10 00:24:19;;;;;;;13.13;7.37;;;5.20;99.90;;;;;;5073075;28;20279;-76
2022/01/10 00:26:44;;;;;;;13.97;7.43;;;5.20;99.90;;;;;;5069083;28;20246;-76
2022/01/10 00:29:10;;;;;;;9.03;6.53;;;5.10;99.90;;;;;;5073287;28;20181;-76
2022/01/10 00:31:36;;;;;;;23.50;10.07;;;5.20;99.90;;;;;;5071602;28;20680;-76
2022/01/10 00:34:02;;;;;;;45.33;17.53;;;5.10;99.90;;;;;;5071361;28;20208;-76
2022/01/10 00:36:28;;;;;;;35.50;15.10;;;5.10;99.90;;;;;;5068032;28;20184;-76
2022/01/10 00:38:53;;;;;;;26.07;11.83;;;5.10;99.90;;;;;;5071257;28;20205;-77
2022/01/10 00:41:19;;;;;;;32.87;13.10;;;5.00;99.90;;;;;;5071155;28;20237;-76
2022/01/10 00:43:46;;;;;;;22.47;12.30;;;5.00;99.90;;;;;;5071126;28;20212;-77
2022/01/10 00:46:13;;;;;;;17.93;10.63;;;5.00;99.90;;;;;;5071910;28;20181;-76
2022/01/10 00:48:39;;;;;;;18.63;10.60;;;5.10;99.90;;;;;;5069477;28;20188;-76
2022/01/10 00:51:05;;;;;;;16.07;9.27;;;5.10;99.90;;;;;;5068522;28;20571;-76
2022/01/10 00:53:31;;;;;;;16.77;9.80;;;5.10;99.90;;;;;;5070248;28;20264;-76
2022/01/10 00:55:57;;;;;;;27.30;15.00;;;5.10;99.90;;;;;;5070558;28;20204;-77
2022/01/10 00:58:23;;;;;;;26.13;14.27;;;5.10;99.90;;;;;;5071295;28;20948;-76
2022/01/10 01:00:51;;;;;;;19.80;11.63;;;5.10;99.90;;;;;;5069723;28;20193;-76
2022/01/10 01:03:17;;;;;;;22.17;10.33;;;5.10;99.90;;;;;;5067847;28;20205;-76
2022/01/10 01:05:44;;;;;;;16.13;10.03;;;5.10;99.90;;;;;;5068966;28;20181;-77
2022/01/10 01:08:12;;;;;;;18.87;10.43;;;5.10;99.90;;;;;;5069053;28;20192;-76
2022/01/10 01:13:53;;;;;;;17.57;9.90;;;5.10;99.90;;;;;;5069625;28;20231;-77
2022/01/10 01:16:11;;;;;;;15.07;9.70;;;5.10;99.90;;;;;;5060940;28;20531;-76
2022/01/10 01:24:07;;;;;;;16.53;9.97;;;5.20;99.90;;;;;;5070883;28;20228;-76
2022/01/10 01:26:40;;;;;;;12.63;8.63;;;5.10;99.90;;;;;;5065122;28;20238;-76
2022/01/10 01:29:09;;;;;;;17.50;9.70;;;5.10;99.90;;;;;;5068393;28;20195;-76
2022/01/10 01:31:36;;;;;;;18.30;9.67;;;5.10;99.90;;;;;;5069002;28;20242;-78
2022/01/10 01:34:02;;;;;;;14.13;8.73;;;5.10;99.90;;;;;;5070629;28;20299;-77
2022/01/10 01:36:30;;;;;;;11.70;7.70;;;5.20;99.90;;;;;;5067372;28;20182;-77
2022/01/10 01:38:57;;;;;;;13.50;8.87;;;5.20;99.90;;;;;;5066600;28;20232;-76
2022/01/10 01:41:40;;;;;;;13.53;8.40;;;5.10;99.90;;;;;;5067596;28;20256;-76
2022/01/10 01:44:06;;;;;;;17.00;8.77;;;5.10;99.90;;;;;;5062593;28;20205;-77
2022/01/10 01:46:34;;;;;;;12.23;8.67;;;5.10;99.90;;;;;;5068881;28;20177;-77
2022/01/10 01:49:01;;;;;;;16.40;8.63;;;5.10;99.90;;;;;;5067438;28;20188;-77
2022/01/10 01:51:27;;;;;;;12.50;7.40;;;5.20;99.90;;;;;;5086096;23;20286;-74
2022/01/10 01:53:53;;;;;;;13.07;7.43;;;5.10;99.90;;;;;;5053076;28;20185;-73
2022/01/10 01:56:20;;;;;;;11.23;6.97;;;5.10;99.90;;;;;;5070814;28;20180;-74
2022/01/10 01:58:46;;;;;;;12.13;7.07;;;5.10;99.90;;;;;;5070647;28;20699;-74
2022/01/10 02:01:16;;;;;;;10.90;6.60;;;5.20;99.90;;;;;;5034591;28;20208;-74
2022/01/10 02:03:43;;;;;;;9.47;6.47;;;5.10;99.90;;;;;;5051124;28;20272;-74
2022/01/10 02:06:11;;;;;;;8.87;6.17;;;5.10;99.90;;;;;;5065727;28;20207;-74
2022/01/10 02:08:39;;;;;;;11.70;6.53;;;5.20;99.90;;;;;;5066787;28;20199;-74
2022/01/10 02:11:12;;;;;;;10.63;6.17;;;5.20;99.90;;;;;;5058300;28;20204;-74
2022/01/10 02:13:39;;;;;;;9.37;5.63;;;5.10;99.90;;;;;;5033487;28;20204;-74
2022/01/10 02:16:32;;;;;;;7.37;5.50;;;5.10;99.90;;;;;;5075171;28;20184;-74
2022/01/10 02:18:59;;;;;;;9.97;6.60;;;5.10;99.90;;;;;;5075743;28;20441;-74
2022/01/10 02:21:24;;;;;;;13.00;8.40;;;5.10;99.90;;;;;;5066909;28;20252;-74
2022/01/10 02:23:51;;;;;;;12.53;8.37;;;5.20;99.90;;;;;;5064300;28;20196;-74
2022/01/10 02:26:22;;;;;;;12.87;8.40;;;5.10;99.90;;;;;;5056489;28;20230;-74
2022/01/10 02:28:48;;;;;;;14.20;9.57;;;5.10;99.90;;;;;;5049017;28;20738;-74
2022/01/10 02:31:14;;;;;;;14.90;9.30;;;5.10;99.90;;;;;;5066850;28;20288;-74
2022/01/10 02:33:40;;;;;;;16.00;9.90;;;5.00;99.90;;;;;;5050446;28;20206;-74
2022/01/10 02:36:16;;;;;;;15.43;10.00;;;4.90;99.90;;;;;;5065992;28;20227;-74
2022/01/10 02:38:57;;;;;;;15.50;9.10;;;4.90;99.90;;;;;;5072084;28;20208;-74
2022/01/10 02:41:29;;;;;;;12.43;8.30;;;4.90;99.90;;;;;;5044863;28;20197;-74
2022/01/10 02:43:57;;;;;;;15.77;8.47;;;5.00;99.90;;;;;;5065391;28;20173;-74
2022/01/10 02:46:25;;;;;;;12.20;8.20;;;5.00;99.90;;;;;;5055903;28;20203;-74
2022/01/10 02:48:52;;;;;;;10.30;7.70;;;5.00;99.90;;;;;;5047196;28;20186;-74
2022/01/10 02:51:19;;;;;;;12.87;7.80;;;5.00;99.90;;;;;;5075390;28;20213;-74
2022/01/10 02:53:46;;;;;;;12.63;7.83;;;5.00;99.90;;;;;;5056456;28;20262;-74
2022/01/10 02:56:12;;;;;;;14.30;8.33;;;5.00;99.90;;;;;;5031688;28;20224;-74
2022/01/10 02:58:40;;;;;;;13.83;8.53;;;5.00;99.90;;;;;;5056769;28;20751;-74
2022/01/10 03:01:06;;;;;;;12.40;7.70;;;5.00;99.90;;;;;;5066302;28;20196;-74
2022/01/10 03:03:33;;;;;;;10.60;7.83;;;5.00;99.90;;;;;;5049257;28;20180;-74
2022/01/10 03:06:00;;;;;;;14.07;8.30;;;4.90;99.90;;;;;;5050504;28;20587;-74
2022/01/10 03:08:28;;;;;;;13.20;7.93;;;5.00;99.90;;;;;;5045642;28;20189;-74
2022/01/10 03:10:55;;;;;;;15.13;8.60;;;5.00;99.90;;;;;;5049058;28;20626;-74
2022/01/10 03:13:21;;;;;;;13.97;9.77;;;5.00;99.90;;;;;;5051211;28;20177;-74
2022/01/10 03:15:47;;;;;;;13.60;8.43;;;5.00;99.90;;;;;;5067145;28;20188;-74
2022/01/10 03:18:13;;;;;;;14.37;9.57;;;5.00;99.90;;;;;;5078416;28;20209;-74
2022/01/10 03:20:39;;;;;;;11.50;8.80;;;4.90;99.90;;;;;;5068452;28;20193;-75
2022/01/10 03:23:05;;;;;;;13.43;8.90;;;5.00;99.90;;;;;;5068919;28;20216;-74
2022/01/10 03:25:31;;;;;;;13.93;9.20;;;4.90;99.90;;;;;;5050712;28;20177;-74
2022/01/10 03:28:01;;;;;;;14.63;9.97;;;4.90;99.90;;;;;;5067450;28;20238;-74
2022/01/10 03:30:28;;;;;;;13.33;9.50;;;5.00;99.90;;;;;;5074258;28;20225;-74
2022/01/10 03:32:57;;;;;;;15.40;10.03;;;4.90;99.90;;;;;;5078091;28;20186;-74
2022/01/10 03:35:28;;;;;;;14.97;9.77;;;4.80;99.90;;;;;;5046547;28;20186;-74
2022/01/10 03:37:54;;;;;;;14.23;9.63;;;4.80;99.90;;;;;;5047670;28;20209;-74
2022/01/10 03:40:22;;;;;;;13.00;9.43;;;4.90;99.90;;;;;;5077892;28;20565;-75
2022/01/10 03:42:49;;;;;;;14.53;9.20;;;4.90;99.90;;;;;;5061012;28;20177;-73
2022/01/10 03:45:15;;;;;;;11.67;9.00;;;4.90;99.90;;;;;;5068755;28;20701;-74
2022/01/10 03:47:41;;;;;;;16.53;9.97;;;4.90;99.90;;;;;;5076323;28;20193;-75
2022/01/10 03:50:07;;;;;;;13.33;8.53;;;4.90;99.90;;;;;;5051987;28;20220;-74
2022/01/10 03:52:35;;;;;;;15.50;9.53;;;4.90;99.90;;;;;;5058686;28;20238;-74
2022/01/10 03:55:01;;;;;;;12.80;8.03;;;4.90;99.90;;;;;;5071646;28;20185;-74
2022/01/10 03:57:26;;;;;;;16.03;7.83;;;4.90;99.90;;;;;;5074239;28;20209;-74
2022/01/10 03:59:52;;;;;;;12.90;6.90;;;4.90;99.90;;;;;;5051162;28;20234;-75
2022/01/10 04:02:18;;;;;;;10.00;6.87;;;4.90;99.90;;;;;;5077964;28;20178;-75
2022/01/10 04:04:44;;;;;;;13.17;9.13;;;4.90;99.90;;;;;;5070288;28;20192;-74
2022/01/10 04:07:12;;;;;;;14.93;10.13;;;4.90;99.90;;;;;;5051704;28;20182;-75
2022/01/10 04:09:38;;;;;;;15.47;10.53;;;4.90;99.90;;;;;;5058745;28;20305;-75
2022/01/10 04:12:04;;;;;;;13.17;10.00;;;4.90;99.90;;;;;;5073835;28;20207;-75
2022/01/10 04:14:30;;;;;;;18.83;12.10;;;4.90;99.90;;;;;;5053691;28;20189;-73
2022/01/10 04:16:56;;;;;;;17.07;11.13;;;4.90;99.90;;;;;;5034993;28;20174;-74
2022/01/10 04:19:23;;;;;;;16.80;11.53;;;4.80;99.90;;;;;;5073599;28;20212;-73
2022/01/10 04:21:48;;;;;;;16.17;11.87;;;4.80;99.90;;;;;;5058096;28;20173;-74
2022/01/10 04:24:15;;;;;;;17.50;11.53;;;4.70;99.90;;;;;;5052431;28;20670;-74
2022/01/10 04:26:41;;;;;;;17.60;11.90;;;4.60;99.90;;;;;;5079479;28;20192;-74
2022/01/10 04:29:08;;;;;;;15.03;11.20;;;4.60;99.90;;;;;;5075672;28;20196;-73
2022/01/10 04:31:34;;;;;;;15.60;10.43;;;4.70;99.90;;;;;;5050652;28;20200;-74
2022/01/10 04:34:00;;;;;;;15.57;11.13;;;4.70;99.90;;;;;;5018512;28;20185;-74
2022/01/10 04:36:26;;;;;;;17.40;10.90;;;4.70;99.90;;;;;;5028457;28;20193;-73
2022/01/10 04:38:52;;;;;;;14.30;10.63;;;4.80;99.90;;;;;;5032575;28;20208;-73
2022/01/10 04:41:19;;;;;;;16.33;10.03;;;4.80;99.90;;;;;;5036423;28;21541;-74
2022/01/10 04:43:45;;;;;;;12.03;9.03;;;4.80;99.90;;;;;;5045294;28;20173;-73
2022/01/10 04:46:12;;;;;;;14.00;8.63;;;4.70;99.90;;;;;;5074459;28;20182;-74
2022/01/10 04:48:37;;;;;;;13.83;8.70;;;4.80;99.90;;;;;;5065458;28;20188;-74
2022/01/10 04:51:16;;;;;;;12.17;8.77;;;4.80;99.90;;;;;;5045285;28;20680;-73
2022/01/10 04:53:50;;;;;;;18.53;12.10;;;4.80;99.90;;;;;;5046665;28;20191;-73
2022/01/10 04:56:18;;;;;;;26.10;13.70;;;4.80;99.90;;;;;;5077256;28;20178;-74
2022/01/10 04:58:47;;;;;;;21.03;11.13;;;4.90;99.90;;;;;;5030203;28;20614;-73
2022/01/10 05:01:14;;;;;;;14.93;9.60;;;4.80;99.90;;;;;;5063279;28;20208;-74
2022/01/10 05:03:40;;;;;;;12.37;8.73;;;4.90;99.90;;;;;;5046732;28;20624;-74
2022/01/10 05:06:06;;;;;;;11.27;8.03;;;4.90;99.90;;;;;;5073211;28;20208;-74
2022/01/10 05:08:33;;;;;;;13.50;8.07;;;4.80;99.90;;;;;;5059392;28;20268;-74
2022/01/10 05:11:01;;;;;;;12.67;8.93;;;4.80;99.90;;;;;;5050263;28;20723;-74
2022/01/10 05:13:27;;;;;;;12.00;7.90;;;4.80;99.90;;;;;;5068882;28;20188;-74
2022/01/10 05:15:54;;;;;;;11.47;7.77;;;4.80;99.90;;;;;;5067956;28;20184;-74
2022/01/10 05:18:22;;;;;;;11.43;7.47;;;4.70;99.90;;;;;;5050848;28;20578;-74
2022/01/10 05:20:50;;;;;;;14.57;9.63;;;4.70;99.90;;;;;;5049197;28;20201;-74
2022/01/10 05:23:16;;;;;;;15.97;10.50;;;4.70;99.90;;;;;;5067152;28;20550;-73
2022/01/10 05:25:42;;;;;;;16.47;10.87;;;4.60;99.90;;;;;;5051055;28;20181;-73
2022/01/10 05:28:12;;;;;;;17.13;10.50;;;4.70;99.90;;;;;;5034268;28;20527;-74
2022/01/10 05:30:40;;;;;;;14.90;9.47;;;4.60;99.90;;;;;;5058570;28;20216;-74
2022/01/10 05:33:07;;;;;;;14.17;9.17;;;4.60;99.90;;;;;;5058962;28;20181;-73
2022/01/10 05:35:46;;;;;;;15.27;10.03;;;4.60;99.90;;;;;;5065410;28;20191;-73
2022/01/10 05:38:13;;;;;;;14.87;10.03;;;4.60;99.90;;;;;;5066989;28;20181;-73
2022/01/10 05:40:39;;;;;;;18.07;11.93;;;4.60;99.90;;;;;;5049347;28;20201;-72
2022/01/10 05:43:07;;;;;;;15.77;10.90;;;4.50;99.90;;;;;;5027691;28;20181;-74
2022/01/10 05:45:33;;;;;;;13.20;10.10;;;4.40;99.90;;;;;;5076927;28;20201;-73
2022/01/10 05:48:07;;;;;;;17.17;11.10;;;4.40;99.90;;;;;;5048166;28;20189;-74
2022/01/10 05:50:35;;;;;;;15.73;11.23;;;4.40;99.90;;;;;;5049908;28;20647;-73
2022/01/10 05:53:05;;;;;;;16.33;11.07;;;4.40;99.90;;;;;;5049579;28;20185;-73
2022/01/10 05:55:31;;;;;;;14.90;10.50;;;4.40;99.90;;;;;;5074345;28;20270;-73
2022/01/10 05:57:57;;;;;;;14.03;10.57;;;4.40;99.90;;;;;;5074713;28;20213;-73
2022/01/10 06:00:23;;;;;;;14.50;10.47;;;4.40;99.90;;;;;;5046082;28;20212;-73
2022/01/10 06:02:49;;;;;;;17.03;10.97;;;4.40;99.90;;;;;;5067375;28;20177;-73
2022/01/10 06:05:29;;;;;;;16.00;10.73;;;4.40;99.90;;;;;;5049724;28;20177;-73
2022/01/10 06:07:55;;;;;;;16.00;10.27;;;4.40;99.90;;;;;;5071118;28;20185;-74
2022/01/10 06:10:21;;;;;;;18.17;11.00;;;4.40;99.90;;;;;;5067757;28;20264;-75
2022/01/10 06:12:47;;;;;;;16.83;11.27;;;4.40;99.90;;;;;;5042751;28;20327;-75
2022/01/10 06:15:13;;;;;;;16.07;11.30;;;4.40;99.90;;;;;;5053840;28;20189;-75
2022/01/10 06:17:43;;;;;;;13.67;10.47;;;4.40;99.90;;;;;;5072568;28;20956;-75
2022/01/10 06:20:09;;;;;;;15.57;9.07;;;4.30;99.90;;;;;;5048769;28;20197;-75
2022/01/10 06:22:35;;;;;;;14.43;9.37;;;4.20;99.90;;;;;;5048750;28;20264;-75
2022/01/10 06:25:03;;;;;;;15.20;9.40;;;4.20;99.90;;;;;;5071178;28;20263;-75
2022/01/10 06:27:30;;;;;;;16.37;9.93;;;4.10;99.90;;;;;;5069896;28;20205;-75
2022/01/10 06:29:55;;;;;;;17.97;9.70;;;4.10;99.90;;;;;;5067090;28;20659;-75
2022/01/10 06:32:21;;;;;;;13.83;9.77;;;4.10;99.90;;;;;;5065258;28;20220;-75
2022/01/10 06:34:48;;;;;;;14.00;9.27;;;4.10;99.90;;;;;;5073506;28;20185;-75
2022/01/10 06:37:14;;;;;;;14.83;9.53;;;4.10;99.90;;;;;;5076635;28;20199;-75
2022/01/10 06:39:43;;;;;;;16.30;9.20;;;4.10;99.90;;;;;;5048161;28;20283;-74
2022/01/10 06:42:09;;;;;;;16.37;9.30;;;4.10;99.90;;;;;;5065816;28;20268;-75
2022/01/10 06:44:36;;;;;;;13.00;9.50;;;4.10;99.90;;;;;;5081604;28;20267;-74
2022/01/10 06:47:02;;;;;;;16.47;9.93;;;4.00;99.90;;;;;;5073160;28;20647;-71
2022/01/10 06:49:28;;;;;;;13.97;10.10;;;3.90;99.90;;;;;;5057064;28;20280;-72
2022/01/10 06:51:54;;;;;;;15.83;10.03;;;3.90;99.90;;;;;;5066577;28;20276;-76
2022/01/10 06:54:21;;;;;;;11.53;9.23;;;3.90;99.90;;;;;;5073073;28;20275;-75
2022/01/10 06:56:48;;;;;;;16.40;10.33;;;3.90;99.90;;;;;;5048020;28;20540;-74
2022/01/10 06:59:13;;;;;;;16.00;9.57;;;3.90;99.90;;;;;;5047008;28;20232;-74
2022/01/10 07:01:45;;;;;;;18.33;9.83;;;3.90;99.90;;;;;;5031128;28;20205;-78
2022/01/10 07:04:12;;;;;;;16.30;10.27;;;4.00;99.90;;;;;;5044038;28;20243;-76
2022/01/10 07:06:40;;;;;;;13.40;8.70;;;4.00;99.90;;;;;;5027609;28;20265;-76
2022/01/10 07:09:11;;;;;;;17.20;9.90;;;4.00;99.90;;;;;;5050529;28;20216;-76
2022/01/10 07:11:47;;;;;;;15.87;10.53;;;4.10;99.90;;;;;;5064681;28;20655;-76
2022/01/10 07:14:14;;;;;;;18.33;10.23;;;4.10;99.90;;;;;;5067211;28;20181;-77
2022/01/10 07:16:41;;;;;;;15.97;10.40;;;4.10;99.90;;;;;;5062235;28;20428;-76
2022/01/10 07:19:08;;;;;;;14.40;10.13;;;4.10;99.90;;;;;;5073072;28;20730;-76
2022/01/10 07:21:39;;;;;;;17.80;11.40;;;4.10;99.90;;;;;;5032254;28;20205;-76
2022/01/10 07:24:08;;;;;;;16.87;11.03;;;4.10;99.90;;;;;;5029905;28;20192;-76
2022/01/10 07:26:34;;;;;;;18.30;10.63;;;4.00;99.90;;;;;;5063448;28;20181;-76
2022/01/10 07:29:00;;;;;;;18.87;11.47;;;4.00;99.90;;;;;;5056894;28;20181;-76
2022/01/10 07:31:27;;;;;;;19.23;11.30;;;4.10;99.90;;;;;;5069285;28;20197;-76
2022/01/10 07:33:54;;;;;;;16.73;9.67;;;4.10;99.90;;;;;;5055079;28;20220;-76
2022/01/10 07:36:20;;;;;;;17.37;11.20;;;4.10;99.90;;;;;;5070962;28;20177;-76
2022/01/10 07:38:46;;;;;;;17.27;10.67;;;4.10;99.90;;;;;;5056022;28;20220;-76
2022/01/10 07:41:12;;;;;;;17.40;10.03;;;4.00;99.90;;;;;;5082382;28;20205;-76
2022/01/10 07:43:37;;;;;;;16.37;10.17;;;4.00;99.90;;;;;;5077847;28;20547;-76
2022/01/10 07:46:04;;;;;;;14.87;10.10;;;4.00;99.90;;;;;;5054951;28;20556;-76
2022/01/10 07:48:33;;;;;;;14.87;10.00;;;4.00;99.90;;;;;;5079796;28;20651;-76
2022/01/10 07:50:59;;;;;;;17.87;10.80;;;4.00;99.90;;;;;;5072886;28;20732;-76
2022/01/10 07:53:25;;;;;;;17.57;10.13;;;4.00;99.90;;;;;;5072388;28;20272;-76
2022/01/10 07:55:51;;;;;;;16.07;10.17;;;4.10;99.90;;;;;;5069419;28;20200;-76
2022/01/10 07:58:17;;;;;;;16.50;10.63;;;4.10;99.90;;;;;;5059209;28;20184;-76
2022/01/10 08:00:44;;;;;;;19.43;11.80;;;4.10;99.90;;;;;;5074170;28;20374;-75
2022/01/10 08:03:09;;;;;;;17.90;11.83;;;4.20;99.90;;;;;;5075550;28;20636;-76
2022/01/10 08:05:35;;;;;;;23.57;12.03;;;4.20;99.90;;;;;;5070149;28;20235;-76
2022/01/10 08:08:01;;;;;;;18.13;10.80;;;4.20;99.90;;;;;;5075280;28;20197;-77
2022/01/10 08:10:27;;;;;;;16.73;11.80;;;4.20;99.90;;;;;;5051267;28;20593;-76
2022/01/10 08:12:53;;;;;;;22.97;14.60;;;4.20;99.90;;;;;;5068953;28;20251;-76
2022/01/10 08:15:20;;;;;;;17.63;10.83;;;4.10;99.90;;;;;;5066707;28;20192;-76
2022/01/10 08:17:46;;;;;;;17.50;10.70;;;4.10;99.90;;;;;;5085942;28;20247;-76
2022/01/10 08:20:12;;;;;;;16.70;11.50;;;4.10;99.90;;;;;;5052267;28;20710;-76
2022/01/10 08:22:38;;;;;;;19.50;11.47;;;4.00;99.90;;;;;;5068853;28;20178;-76
2022/01/10 08:25:04;;;;;;;19.67;11.43;;;4.10;99.90;;;;;;5070834;28;20231;-76
2022/01/10 08:27:30;;;;;;;15.83;10.67;;;4.10;99.90;;;;;;5070404;28;20279;-76
2022/01/10 08:29:55;;;;;;;19.70;11.17;;;4.20;99.90;;;;;;5065534;28;20650;-76
2022/01/10 08:32:21;;;;;;;15.97;10.57;;;4.20;99.90;;;;;;5069065;28;20606;-76
2022/01/10 08:34:47;;;;;;;16.80;11.97;;;4.20;99.90;;;;;;5056523;28;20175;-75
2022/01/10 08:37:13;;;;;;;19.60;11.50;;;4.20;99.90;;;;;;5054911;28;20176;-76
2022/01/10 08:39:39;;;;;;;20.50;11.17;;;4.30;99.90;;;;;;5069612;28;20652;-76
2022/01/10 08:42:05;;;;;;;17.63;11.60;;;4.30;99.90;;;;;;5033708;28;20177;-77
2022/01/10 08:44:31;;;;;;;14.40;10.73;;;4.20;99.90;;;;;;5061505;28;20166;-76
2022/01/10 08:46:57;;;;;;;15.10;10.30;;;4.20;99.90;;;;;;5086783;28;20583;-74
2022/01/10 08:49:23;;;;;;;18.13;10.80;;;4.10;99.90;;;;;;5075337;28;20249;-75
2022/01/10 08:51:54;;;;;;;14.37;9.90;;;4.20;99.90;;;;;;5076338;28;20181;-75
2022/01/10 08:54:23;;;;;;;12.53;9.83;;;4.20;99.90;;;;;;5052441;28;20246;-75
2022/01/10 08:56:50;;;;;;;13.57;8.90;;;4.20;99.90;;;;;;5072882;28;20181;-76
2022/01/10 08:59:16;;;;;;;16.60;9.20;;;4.30;99.90;;;;;;5059178;28;20201;-76
2022/01/10 09:01:42;;;;;;;15.80;10.17;;;4.30;99.90;;;;;;5076685;28;20280;-75
2022/01/10 09:04:15;;;;;;;14.40;9.87;;;4.50;99.90;;;;;;5074791;28;20199;-80
2022/01/10 09:06:46;;;;;;;20.20;11.47;;;4.60;99.90;;;;;;5053248;28;20177;-77
2022/01/10 09:09:12;;;;;;;14.67;10.50;;;4.70;99.90;;;;;;5057075;28;20674;-77
2022/01/10 09:11:39;;;;;;;16.13;10.87;;;4.70;99.90;;;;;;5074523;28;20192;-74
2022/01/10 09:14:05;;;;;;;19.60;11.70;;;4.70;99.90;;;;;;5076064;28;20664;-75
2022/01/10 09:16:31;;;;;;;17.43;10.87;;;4.70;99.90;;;;;;5074760;28;20599;-73
2022/01/10 09:18:57;;;;;;;16.07;11.23;;;4.70;99.90;;;;;;5071591;28;20209;-74
2022/01/10 09:21:23;;;;;;;18.60;11.80;;;4.80;99.90;;;;;;5086856;28;20574;-73
2022/01/10 09:23:49;;;;;;;22.90;11.70;;;4.80;99.90;;;;;;5037254;28;20260;-74
2022/01/10 09:26:15;;;;;;;15.60;9.50;;;4.90;99.90;;;;;;5071631;28;20427;-75
2022/01/10 09:28:42;;;;;;;15.17;9.77;;;4.90;99.90;;;;;;5072864;28;20254;-75
2022/01/10 09:31:09;;;;;;;15.60;10.63;;;5.00;99.90;;;;;;5082233;28;20304;-73
2022/01/10 09:33:35;;;;;;;16.33;10.60;;;5.00;99.90;;;;;;5053887;28;20180;-75
2022/01/10 09:36:01;;;;;;;19.70;12.33;;;5.10;99.90;;;;;;5063027;28;20636;-75
2022/01/10 09:38:27;;;;;;;18.00;12.03;;;5.10;99.90;;;;;;5070124;28;20278;-75
2022/01/10 09:40:54;;;;;;;18.20;12.17;;;5.10;99.90;;;;;;5070648;28;20228;-75
2022/01/10 09:43:21;;;;;;;23.70;15.03;;;5.20;99.90;;;;;;5089678;28;20177;-75
2022/01/10 09:45:48;;;;;;;20.13;12.07;;;5.20;99.90;;;;;;5066574;28;20185;-75
2022/01/10 09:48:14;;;;;;;19.97;11.63;;;5.20;99.90;;;;;;5069347;28;20250;-76
2022/01/10 09:50:40;;;;;;;17.57;11.43;;;5.10;99.90;;;;;;5067588;28;20637;-75
2022/01/10 09:53:07;;;;;;;19.13;12.33;;;5.10;99.90;;;;;;5057300;28;20891;-75
2022/01/10 09:55:34;;;;;;;17.57;11.50;;;5.10;99.90;;;;;;5066278;28;20595;-75
2022/01/10 09:58:00;;;;;;;18.90;11.47;;;5.10;99.90;;;;;;5065931;28;20207;-75
2022/01/10 10:00:26;;;;;;;23.97;13.83;;;5.00;99.90;;;;;;5064866;28;20193;-75
2022/01/10 10:02:52;;;;;;;19.90;12.70;;;5.00;99.90;;;;;;5066823;28;20184;-75
2022/01/10 10:05:19;;;;;;;21.80;13.50;;;5.00;99.90;;;;;;5068644;28;20196;-75
2022/01/10 10:07:45;;;;;;;18.23;12.00;;;5.00;99.90;;;;;;5031616;28;20234;-75
2022/01/10 10:10:12;;;;;;;17.33;11.70;;;5.00;99.90;;;;;;5065437;28;20216;-75
2022/01/10 10:12:40;;;;;;;23.03;13.53;;;5.00;99.90;;;;;;5050686;28;20255;-75
2022/01/10 10:15:07;;;;;;;18.47;11.97;;;5.00;99.90;;;;;;5071322;28;20647;-75
2022/01/10 10:17:36;;;;;;;18.67;12.73;;;5.10;99.90;;;;;;5071712;28;20733;-75
2022/01/10 10:20:14;;;;;;;17.57;12.33;;;5.10;99.90;;;;;;5065730;28;20204;-74
2022/01/10 10:22:41;;;;;;;19.27;12.83;;;5.20;99.90;;;;;;5065496;28;20785;-75
2022/01/10 10:25:09;;;;;;;18.30;12.00;;;5.20;99.90;;;;;;5065666;28;20188;-75
2022/01/10 10:27:40;;;;;;;19.30;11.40;;;5.20;99.90;;;;;;5072783;28;20180;-75
2022/01/10 10:30:15;;;;;;;18.27;11.53;;;5.20;99.90;;;;;;5074059;28;20230;-75
2022/01/10 10:32:41;;;;;;;18.10;10.77;;;5.20;99.90;;;;;;5071226;28;20185;-75
2022/01/10 10:35:08;;;;;;;18.80;11.33;;;5.30;99.90;;;;;;5070186;28;20196;-75
2022/01/10 10:37:38;;;;;;;15.60;10.07;;;5.30;99.90;;;;;;5068613;28;20216;-75
2022/01/10 10:40:09;;;;;;;16.87;10.07;;;5.40;99.90;;;;;;5049329;28;20283;-75
2022/01/10 10:42:37;;;;;;;17.30;9.63;;;5.50;99.90;;;;;;5048814;28;20193;-75
2022/01/10 10:45:09;;;;;;;18.00;9.27;;;5.50;99.90;;;;;;5065196;28;20176;-74
2022/01/10 10:47:36;;;;;;;18.60;10.33;;;5.60;99.90;;;;;;5066134;28;20189;-75
2022/01/10 10:50:06;;;;;;;13.97;9.27;;;5.60;99.90;;;;;;5060783;28;20212;-75
2022/01/10 10:52:34;;;;;;;15.20;9.37;;;5.60;99.90;;;;;;5043215;28;20676;-75
2022/01/10 10:55:09;;;;;;;15.10;9.07;;;5.70;99.90;;;;;;5041199;28;20652;-75
2022/01/10 10:57:35;;;;;;;15.23;9.37;;;5.70;99.90;;;;;;5057315;28;20218;-75
2022/01/10 11:00:05;;;;;;;15.57;8.80;;;5.70;99.90;;;;;;5068329;28;20661;-75
2022/01/10 11:02:31;;;;;;;17.27;8.87;;;5.70;99.90;;;;;;5071163;28;20234;-75
2022/01/10 11:05:01;;;;;;;18.10;8.83;;;5.70;99.90;;;;;;5071338;28;20189;-75
2022/01/10 11:07:31;;;;;;;17.67;9.70;;;5.70;99.90;;;;;;5073238;28;20235;-75
2022/01/10 11:09:57;;;;;;;18.37;10.10;;;5.80;99.90;;;;;;5073731;28;20205;-75
2022/01/10 11:12:24;;;;;;;15.63;9.70;;;5.80;99.90;;;;;;5055866;28;20187;-76
2022/01/10 11:14:52;;;;;;;15.70;9.87;;;5.90;99.90;;;;;;5073018;28;20177;-75
2022/01/10 11:17:22;;;;;;;18.40;9.97;;;6.00;99.90;;;;;;5073777;28;20588;-75
2022/01/10 11:20:18;;;;;;;19.57;9.87;;;6.10;99.90;;;;;;5043894;28;20671;-75
2022/01/10 11:22:58;;;;;;;18.40;10.00;;;6.20;99.90;;;;;;5070851;28;20602;-75
2022/01/10 11:25:36;;;;;;;19.87;10.37;;;6.20;99.90;;;;;;5072352;28;20196;-75
2022/01/10 11:28:10;;;;;;;18.23;10.73;;;6.30;99.90;;;;;;5083400;28;20184;-75
2022/01/10 11:30:38;;;;;;;20.13;11.50;;;6.30;99.90;;;;;;5067999;28;20201;-75
2022/01/10 11:33:09;;;;;;;20.63;11.47;;;6.40;99.90;;;;;;5071628;28;20181;-75
2022/01/10 11:35:36;;;;;;;20.27;11.27;;;6.40;99.90;;;;;;5049265;28;20243;-75
2022/01/10 11:38:19;;;;;;;23.50;12.30;;;6.50;99.90;;;;;;5049088;28;20204;-75
2022/01/10 11:40:51;;;;;;;23.70;11.93;;;6.50;99.90;;;;;;5048794;28;20189;-74
2022/01/10 11:43:44;;;;;;;21.03;12.07;;;6.60;99.90;;;;;;5066617;28;20207;-76
2022/01/10 11:46:22;;;;;;;24.57;12.27;;;6.80;99.90;;;;;;5051658;28;20181;-76
2022/01/10 11:48:59;;;;;;;22.80;12.77;;;7.00;99.90;;;;;;5068279;28;20660;-75
2022/01/10 11:51:34;;;;;;;21.80;12.70;;;7.10;99.90;;;;;;5066884;28;20209;-76
2022/01/10 11:54:01;;;;;;;17.67;12.30;;;7.30;99.90;;;;;;5049754;28;20184;-75
2022/01/10 11:56:33;;;;;;;22.63;14.37;;;7.40;99.90;;;;;;5049888;28;20200;-76
2022/01/10 11:59:10;;;;;;;22.50;12.97;;;7.60;99.90;;;;;;5067674;28;20625;-76
2022/01/10 12:01:40;;;;;;;20.93;11.67;;;7.70;99.90;;;;;;5069238;28;20270;-76
2022/01/10 12:04:06;;;;;;;20.53;12.13;;;7.90;99.90;;;;;;5072629;28;20173;-76
2022/01/10 12:06:32;;;;;;;17.87;11.10;;;8.00;99.90;;;;;;5071841;28;20264;-76
2022/01/10 12:08:58;;;;;;;18.50;11.27;;;8.10;99.90;;;;;;5033958;28;20260;-76
2022/01/10 12:11:26;;;;;;;22.87;11.30;;;8.10;99.90;;;;;;5050426;28;20235;-77
2022/01/10 12:13:54;;;;;;;20.13;11.00;;;8.10;99.90;;;;;;5067998;28;20193;-76
2022/01/10 12:16:21;;;;;;;22.17;10.83;;;8.10;99.90;;;;;;5057302;28;20200;-76
2022/01/10 12:18:51;;;;;;;19.93;9.77;;;8.30;97.00;;;;;;5067101;28;20217;-76
2022/01/10 12:21:17;;;;;;;17.13;10.33;;;8.30;98.30;;;;;;5071599;28;20323;-76
2022/01/10 12:23:44;;;;;;;20.67;10.67;;;8.30;96.60;;;;;;5057255;28;20257;-76
2022/01/10 12:26:10;;;;;;;22.93;11.23;;;8.30;98.10;;;;;;5081560;28;20177;-76
2022/01/10 12:28:36;;;;;;;23.50;11.90;;;8.20;97.60;;;;;;5078514;28;20264;-76
2022/01/10 12:31:04;;;;;;;19.33;11.17;;;8.10;97.60;;;;;;5091322;28;20203;-77
2022/01/10 12:33:30;;;;;;;19.77;11.90;;;8.10;98.70;;;;;;5049208;28;20619;-76
2022/01/10 12:35:56;;;;;;;19.73;11.03;;;8.10;99.80;;;;;;5072031;28;20211;-75
2022/01/10 12:38:23;;;;;;;20.33;11.40;;;8.10;99.80;;;;;;5075655;28;20666;-76
2022/01/10 12:40:50;;;;;;;19.40;11.90;;;8.10;99.90;;;;;;5076686;28;20750;-75
2022/01/10 12:43:16;;;;;;;20.53;11.90;;;8.10;98.90;;;;;;5075731;28;20177;-76
2022/01/10 12:45:42;;;;;;;20.23;11.97;;;8.10;99.10;;;;;;5076925;28;20236;-76
2022/01/10 12:48:09;;;;;;;19.93;11.73;;;8.10;98.50;;;;;;5077685;28;20180;-77
2022/01/10 12:50:35;;;;;;;22.93;11.50;;;8.10;99.10;;;;;;5064636;28;20710;-76
2022/01/10 12:53:00;;;;;;;22.17;12.07;;;8.00;99.90;;;;;;5068097;28;20210;-76